Time;durP1;ratioP1;P1;durP2;ratioP2;P2;SDS_P1;SDS_P2;PMS_P1;PMS_P2;Temp;Humidity;BMP_temperature;BMP_pressure;BME280_temperature;BME280_humidity;BME280_pressure;Samples;Min_cycle;Max_cycle;Signal;HPM_P1;HPM_P2
2022/11/03 00:01:44;;;;;;;0.40;0.40;;;9.00;99.90;;;;;;5053937;28;20131;-71
2022/11/03 00:04:16;;;;;;;0.60;0.60;;;9.50;99.90;;;;;;5054379;28;20395;-71
2022/11/03 00:06:44;;;;;;;2.25;1.20;;;9.40;99.90;;;;;;5056293;28;20053;-70
2022/11/03 00:09:12;;;;;;;1.00;0.77;;;9.00;99.90;;;;;;5051813;28;20452;-72
2022/11/03 00:11:39;;;;;;;1.15;1.15;;;8.90;99.90;;;;;;5034982;28;20492;-71
2022/11/03 00:14:05;;;;;;;2.15;1.30;;;;;;;;;;5051741;28;20067;-70
2022/11/03 00:16:32;;;;;;;0.57;0.57;;;9.20;99.90;;;;;;5066930;28;20028;-69
2022/11/03 00:18:58;;;;;;;1.02;1.02;;;;;;;;;;5061236;28;20051;-70
2022/11/03 00:21:23;;;;;;;1.07;1.03;;;8.80;99.90;;;;;;5071569;28;20414;-70
2022/11/03 00:23:50;;;;;;;2.17;1.97;;;8.50;99.90;;;;;;5071966;28;20041;-70
2022/11/03 00:26:20;;;;;;;6.75;1.98;;;9.40;99.90;;;;;;5071518;28;20036;-71
2022/11/03 00:28:50;;;;;;;2.33;2.13;;;9.00;99.90;;;;;;5033639;28;20132;-69
2022/11/03 00:31:19;;;;;;;3.00;2.15;;;9.10;99.90;;;;;;5051395;28;20033;-71
2022/11/03 00:33:45;;;;;;;3.10;2.10;;;9.00;99.90;;;;;;5056946;28;20025;-69
2022/11/03 00:36:13;;;;;;;1.40;1.30;;;9.00;99.90;;;;;;5071312;28;20120;-69
2022/11/03 00:38:39;;;;;;;0.40;0.40;;;;;;;;;;5071198;28;20036;-69
2022/11/03 00:41:06;;;;;;;1.52;1.42;;;9.00;99.90;;;;;;5053484;28;20360;-70
2022/11/03 00:43:33;;;;;;;6.20;2.17;;;9.00;99.90;;;;;;5038693;28;20037;-70
2022/11/03 00:46:00;;;;;;;0.50;0.50;;;;;;;;;;5051138;28;20037;-71
2022/11/03 00:48:28;;;;;;;1.30;1.20;;;9.30;99.90;;;;;;5051448;28;20048;-70
2022/11/03 00:51:15;;;;;;;0.75;0.75;;;8.90;99.90;;;;;;5037116;28;20033;-70
2022/11/03 00:53:42;;;;;;;1.20;1.20;;;8.90;99.90;;;;;;5070958;28;20024;-70
2022/11/03 00:56:13;;;;;;;2.65;2.45;;;8.70;99.90;;;;;;5071014;28;20033;-71
2022/11/03 00:58:39;;;;;;;3.83;1.58;;;;;;;;;;5057528;28;20562;-70
2022/11/03 01:01:06;;;;;;;0.93;0.93;;;;;;;;;;5051390;28;20479;-70
2022/11/03 01:03:33;;;;;;;1.13;1.13;;;8.80;99.90;;;;;;5050870;28;20032;-70
2022/11/03 01:08:44;;;;;;;0.77;0.77;;;9.20;99.90;;;;;;5050731;28;20045;-72
2022/11/03 01:14:00;;;;;;;0.85;0.85;;;;;;;;;;5051869;28;20040;-71
2022/11/03 01:16:26;;;;;;;2.85;2.65;;;;;;;;;;5050706;28;20037;-70
2022/11/03 01:18:52;;;;;;;2.30;2.20;;;;;;;;;;5050883;28;20032;-69
2022/11/03 01:21:18;;;;;;;1.73;1.63;;;;;;;;;;5033378;28;20029;-69
2022/11/03 01:23:44;;;;;;;0.50;0.50;;;;;;;;;;5065842;28;20349;-69
2022/11/03 01:26:11;;;;;;;0.82;0.82;;;8.90;99.90;;;;;;5050647;28;20527;-69
2022/11/03 01:28:37;;;;;;;;;;;;;;;;;;5059297;28;20044;-70
2022/11/03 01:31:13;;;;;;;2.33;2.15;;;;;;;;;;5070945;28;19994;-70
2022/11/03 01:33:40;;;;;;;0.88;0.88;;;8.90;99.90;;;;;;5070828;28;20452;-71
2022/11/03 01:36:06;;;;;;;1.13;1.10;;;8.50;99.90;;;;;;5034837;28;20607;-70
2022/11/03 01:38:34;;;;;;;2.38;1.67;;;8.80;99.90;;;;;;5051553;28;20591;-70
2022/11/03 01:41:01;;;;;;;1.02;1.00;;;8.80;99.90;;;;;;5050722;28;20470;-72
2022/11/03 01:43:27;;;;;;;;;;;8.80;99.90;;;;;;5056355;28;20024;-71
2022/11/03 01:46:11;;;;;;;2.30;2.05;;;8.80;99.90;;;;;;5086214;28;19916;-71
2022/11/03 01:48:43;;;;;;;4.18;3.03;;;8.70;99.90;;;;;;5052243;28;20096;-71
2022/11/03 01:51:10;;;;;;;1.33;1.23;;;9.30;99.90;;;;;;5054257;28;20131;-70
2022/11/03 01:53:40;;;;;;;3.63;3.30;;;8.70;99.90;;;;;;5050355;28;20025;-71
2022/11/03 01:56:06;;;;;;;1.42;1.35;;;8.90;99.90;;;;;;5050706;28;20498;-70
2022/11/03 01:58:35;;;;;;;1.27;1.20;;;8.80;99.90;;;;;;5051181;28;20100;-70
2022/11/03 02:01:01;;;;;;;0.95;0.95;;;8.80;99.90;;;;;;5064577;28;20246;-69
2022/11/03 02:03:32;;;;;;;1.05;1.05;;;8.80;99.90;;;;;;5050562;28;20025;-70
2022/11/03 02:05:58;;;;;;;1.75;1.60;;;8.80;99.90;;;;;;5061927;28;20047;-70
2022/11/03 02:08:46;;;;;;;4.40;1.75;;;8.80;99.90;;;;;;5070641;28;20036;-70
2022/11/03 02:13:57;;;;;;;1.17;1.17;;;;;;;;;;5063829;28;20032;-71
2022/11/03 02:16:25;;;;;;;3.73;2.73;;;;;;;;;;5050495;28;20046;-69
2022/11/03 02:18:51;;;;;;;2.47;2.28;;;;;;;;;;5050028;28;20466;-71
2022/11/03 02:21:38;;;;;;;1.95;1.65;;;8.90;99.90;;;;;;5063131;28;20028;-69
2022/11/03 02:24:14;;;;;;;2.38;2.22;;;;;;;;;;5070189;28;20032;-70
2022/11/03 02:26:42;;;;;;;1.98;1.77;;;9.00;99.90;;;;;;5069954;28;20448;-69
2022/11/03 02:29:08;;;;;;;2.00;1.85;;;;;;;;;;5063719;28;20087;-70
2022/11/03 02:31:54;;;;;;;0.43;0.43;;;;;;;;;;5050244;28;20053;-70
2022/11/03 02:34:23;;;;;;;0.70;0.70;;;;;;;;;;5050340;28;20033;-69
2022/11/03 02:36:50;;;;;;;2.80;2.28;;;9.00;99.90;;;;;;5052518;28;20108;-70
2022/11/03 02:40:01;;;;;;;1.42;1.40;;;9.00;99.90;;;;;;5065236;28;20056;-71
2022/11/03 02:42:28;;;;;;;0.43;0.43;;;;;;;;;;5047711;28;20037;-71
2022/11/03 02:44:59;;;;;;;0.95;0.95;;;8.90;99.90;;;;;;5059755;28;20036;-70
2022/11/03 02:47:25;;;;;;;1.00;1.00;;;;;;;;;;5069733;28;20036;-71
2022/11/03 02:49:53;;;;;;;2.30;1.48;;;9.20;99.90;;;;;;5069912;28;20043;-69
2022/11/03 02:52:37;;;;;;;1.27;1.25;;;9.10;99.90;;;;;;5052401;28;20032;-68
2022/11/03 02:55:11;;;;;;;2.53;2.40;;;;;;;;;;5068792;28;20037;-70
2022/11/03 02:57:41;;;;;;;1.75;1.65;;;;;;;;;;5068619;28;20032;-71
2022/11/03 03:00:08;;;;;;;1.45;1.35;;;;;;;;;;5070864;28;20113;-70
2022/11/03 03:02:45;;;;;;;3.90;3.55;;;;;;;;;;5093421;28;20523;-71
2022/11/03 03:05:13;;;;;;;0.40;0.40;;;;;;;;;;5093641;28;20399;-70
2022/11/03 03:07:43;;;;;;;3.33;3.05;;;;;;;;;;5074107;28;20161;-71
2022/11/03 03:10:15;;;;;;;1.55;1.45;;;9.20;99.90;;;;;;5073228;28;20032;-70
2022/11/03 03:12:45;;;;;;;2.78;1.48;;;;;;;;;;5072969;28;20024;-70
2022/11/03 03:15:11;;;;;;;1.58;1.45;;;;;;;;;;5074225;28;20387;-69
2022/11/03 03:17:37;;;;;;;2.33;2.22;;;;;;;;;;5072846;28;20029;-70
2022/11/03 03:20:18;;;;;;;0.73;0.73;;;9.20;99.90;;;;;;5073102;28;20431;-71
2022/11/03 03:22:47;;;;;;;2.83;1.83;;;;;;;;;;5073825;28;20552;-70
2022/11/03 03:25:15;;;;;;;1.70;1.60;;;;;;;;;;5074021;28;20376;-69
2022/11/03 03:27:44;;;;;;;0.73;0.73;;;;;;;;;;5072394;28;20035;-71
2022/11/03 03:30:11;;;;;;;1.50;1.42;;;9.20;99.90;;;;;;5060862;28;20055;-69
2022/11/03 03:32:37;;;;;;;;;;;;;;;;;;5093210;28;20016;-70
2022/11/03 03:35:07;;;;;;;1.23;1.20;;;9.30;99.90;;;;;;5092929;28;19969;-69
2022/11/03 03:37:36;;;;;;;1.42;1.33;;;9.30;99.90;;;;;;5073136;28;20053;-70
2022/11/03 03:40:08;;;;;;;26.27;5.35;;;9.30;99.90;;;;;;5092778;28;20432;-70
2022/11/03 03:42:36;;;;;;;1.60;1.50;;;9.20;99.90;;;;;;5092235;28;20058;-70
2022/11/03 03:45:04;;;;;;;1.42;1.35;;;9.20;99.90;;;;;;5089282;28;20429;-70
2022/11/03 03:47:32;;;;;;;1.65;1.55;;;9.20;99.90;;;;;;5072188;28;20463;-69
2022/11/03 03:49:58;;;;;;;2.40;2.30;;;;;;;;;;5072315;28;20085;-71
2022/11/03 03:52:25;;;;;;;11.55;3.33;;;;;;;;;;5082298;28;20028;-70
2022/11/03 03:54:51;;;;;;;1.13;1.08;;;;;;;;;;5077782;28;20434;-70
2022/11/03 03:57:20;;;;;;;5.78;1.63;;;9.20;99.90;;;;;;5056144;28;20070;-70
2022/11/03 03:59:46;;;;;;;2.20;2.03;;;;;;;;;;5071805;28;20033;-70
2022/11/03 04:02:12;;;;;;;1.33;1.27;;;;;;;;;;5072829;28;20073;-70
2022/11/03 04:04:38;;;;;;;2.17;1.98;;;;;;;;;;5071924;28;20047;-70
2022/11/03 04:09:49;;;;;;;1.98;1.88;;;;;;;;;;5092385;28;20381;-70
2022/11/03 04:23:15;;;;;;;0.95;0.95;;;;;;;;;;5051823;28;20044;-69
2022/11/03 04:25:49;;;;;;;1.52;1.42;;;9.20;99.90;;;;;;5051340;28;20037;-68
2022/11/03 04:28:15;;;;;;;1.48;1.38;;;;;;;;;;5033274;28;20045;-70
2022/11/03 04:30:41;;;;;;;1.60;1.48;;;;;;;;;;5033568;28;20094;-73
2022/11/03 04:33:13;;;;;;;29.97;2.83;;;;;;;;;;5079356;28;20025;-69
2022/11/03 04:35:43;;;;;;;2.28;2.15;;;;;;;;;;5053922;28;20067;-69
2022/11/03 04:38:14;;;;;;;0.73;0.73;;;9.30;99.90;;;;;;5072272;28;20029;-70
2022/11/03 04:40:44;;;;;;;1.48;1.38;;;9.30;99.90;;;;;;5071527;28;20033;-70
2022/11/03 04:43:16;;;;;;;2.80;2.60;;;9.30;99.90;;;;;;5083633;28;20028;-69
2022/11/03 04:45:44;;;;;;;1.88;1.77;;;9.30;99.90;;;;;;5073178;28;20454;-69
2022/11/03 04:48:21;;;;;;;0.80;0.80;;;;;;;;;;5091254;28;20115;-69
2022/11/03 04:50:49;;;;;;;2.17;2.03;;;9.30;99.90;;;;;;5069995;28;20468;-70
2022/11/03 04:53:17;;;;;;;1.25;1.15;;;9.30;99.90;;;;;;5070863;28;20021;-70
2022/11/03 04:55:44;;;;;;;0.80;0.80;;;9.30;99.90;;;;;;5070760;28;20040;-70
2022/11/03 04:58:10;;;;;;;;;;;;;;;;;;5071334;28;20048;-69
2022/11/03 05:00:36;;;;;;;0.73;0.73;;;;;;;;;;5071135;28;19959;-69
2022/11/03 05:03:02;;;;;;;1.03;1.03;;;9.40;99.90;;;;;;5072889;28;20442;-70
2022/11/03 05:05:28;;;;;;;1.63;1.42;;;;;;;;;;5053257;28;20033;-71
2022/11/03 05:07:56;;;;;;;1.70;1.60;;;9.30;99.90;;;;;;5072076;28;20052;-69
2022/11/03 05:10:26;;;;;;;0.90;0.90;;;9.30;99.90;;;;;;5070985;28;20388;-70
2022/11/03 05:12:53;;;;;;;0.57;0.57;;;9.70;99.90;;;;;;5072002;28;20617;-71
2022/11/03 05:15:31;;;;;;;1.08;0.98;;;;;;;;;;5053826;28;20479;-71
2022/11/03 05:18:01;;;;;;;1.10;1.10;;;9.40;99.90;;;;;;5071014;28;20533;-68
2022/11/03 05:20:33;;;;;;;0.50;0.50;;;9.40;99.90;;;;;;5074889;28;20020;-70
2022/11/03 05:22:59;;;;;;;1.17;1.17;;;9.40;99.90;;;;;;5090691;28;20032;-69
2022/11/03 05:25:46;;;;;;;1.20;0.68;;;;;;;;;;5090781;28;20059;-70
2022/11/03 05:28:18;;;;;;;0.35;0.35;;;;;;;;;;5090419;28;20048;-70
2022/11/03 05:30:44;;;;;;;0.50;0.50;;;9.40;99.90;;;;;;5087318;28;20052;-70
2022/11/03 05:33:31;;;;;;;1.73;1.63;;;9.40;99.90;;;;;;5071638;28;20434;-69
2022/11/03 05:36:00;;;;;;;1.05;1.02;;;9.50;99.90;;;;;;5076760;28;20027;-70
2022/11/03 05:38:30;;;;;;;1.75;1.65;;;9.50;99.90;;;;;;5090426;28;20424;-69
2022/11/03 05:40:56;;;;;;;1.33;1.30;;;;;;;;;;5088846;28;20047;-72
2022/11/03 05:43:22;;;;;;;1.02;1.02;;;9.60;99.90;;;;;;5070645;28;20150;-69
2022/11/03 05:45:51;;;;;;;0.83;0.83;;;9.60;99.90;;;;;;5070705;28;20112;-70
2022/11/03 05:48:34;;;;;;;0.50;0.50;;;9.60;99.90;;;;;;5070097;28;20020;-69
2022/11/03 05:51:10;;;;;;;0.47;0.47;;;9.60;99.90;;;;;;5082508;28;20036;-70
2022/11/03 05:53:38;;;;;;;2.40;2.22;;;9.60;99.90;;;;;;5072140;28;20145;-68
2022/11/03 05:56:05;;;;;;;0.68;0.68;;;9.70;99.90;;;;;;5090427;28;20043;-69
2022/11/03 05:58:35;;;;;;;1.30;1.20;;;9.70;99.90;;;;;;5090409;28;20020;-68
2022/11/03 06:01:09;;;;;;;0.60;0.60;;;9.60;99.90;;;;;;5087027;28;20028;-69
2022/11/03 06:03:36;;;;;;;0.40;0.40;;;9.70;99.90;;;;;;5070549;28;20039;-70
2022/11/03 06:06:10;;;;;;;1.55;1.45;;;9.60;99.90;;;;;;5079950;28;20051;-70
2022/11/03 06:08:36;;;;;;;1.00;1.00;;;;;;;;;;5070136;28;20021;-68
2022/11/03 06:11:03;;;;;;;0.50;0.50;;;9.80;99.90;;;;;;5053135;28;20403;-70
2022/11/03 06:13:30;;;;;;;1.88;1.73;;;9.90;99.90;;;;;;5053236;28;20288;-70
2022/11/03 06:16:01;;;;;;;2.08;1.15;;;9.90;99.90;;;;;;5070814;28;20395;-70
2022/11/03 06:18:32;;;;;;;1.25;1.20;;;9.80;99.90;;;;;;5052158;28;20541;-70
2022/11/03 06:21:04;;;;;;;0.52;0.52;;;9.90;99.90;;;;;;5085345;28;20036;-70
2022/11/03 06:23:33;;;;;;;0.50;0.50;;;10.00;99.90;;;;;;5090223;28;20027;-70
2022/11/03 06:26:01;;;;;;;1.52;1.42;;;10.00;99.90;;;;;;5072144;28;20344;-71
2022/11/03 06:28:35;;;;;;;0.80;0.80;;;9.60;99.90;;;;;;5092821;28;20044;-72
2022/11/03 06:31:02;;;;;;;0.82;0.82;;;;;;;;;;5081189;28;20360;-71
2022/11/03 06:33:32;;;;;;;0.47;0.47;;;10.30;99.90;;;;;;5055755;28;20048;-70
2022/11/03 06:36:02;;;;;;;0.95;0.95;;;10.10;99.90;;;;;;5068485;28;20403;-70
2022/11/03 06:38:30;;;;;;;0.30;0.30;;;9.40;99.90;;;;;;5075556;28;20027;-71
2022/11/03 06:40:57;;;;;;;0.30;0.30;;;10.80;99.90;;;;;;5085394;28;20029;-70
2022/11/03 06:43:40;;;;;;;0.52;0.52;;;10.10;99.90;;;;;;5073439;28;20052;-68
2022/11/03 06:46:23;;;;;;;1.20;0.88;;;10.20;99.90;;;;;;5073873;28;20037;-69
2022/11/03 06:48:51;;;;;;;0.57;0.57;;;10.50;99.90;;;;;;5074163;28;20035;-70
2022/11/03 06:51:23;;;;;;;0.30;0.30;;;10.50;99.90;;;;;;5093351;28;20067;-70
2022/11/03 06:53:50;;;;;;;0.30;0.30;;;10.60;99.90;;;;;;5093436;28;20024;-70
2022/11/03 06:56:20;;;;;;;1.27;1.17;;;10.40;99.90;;;;;;5093562;28;20115;-70
2022/11/03 06:58:50;;;;;;;1.23;1.20;;;10.30;99.90;;;;;;5093248;28;20112;-70
2022/11/03 07:01:20;;;;;;;0.50;0.50;;;10.30;99.90;;;;;;5075449;28;20056;-71
2022/11/03 07:03:46;;;;;;;0.40;0.40;;;;;;;;;;5073082;28;20633;-70
2022/11/03 07:06:23;;;;;;;0.82;0.82;;;10.30;99.90;;;;;;5074670;28;20353;-70
2022/11/03 07:08:57;;;;;;;0.60;0.60;;;10.40;99.90;;;;;;5073033;28;20119;-69
2022/11/03 07:11:28;;;;;;;0.57;0.57;;;10.30;99.90;;;;;;5089061;28;20081;-71
2022/11/03 07:14:13;;;;;;;0.40;0.40;;;;;;;;;;5093364;28;20017;-69
2022/11/03 07:16:43;;;;;;;0.40;0.40;;;10.70;99.90;;;;;;5093217;28;20078;-62
2022/11/03 07:19:19;;;;;;;0.88;0.88;;;10.50;99.90;;;;;;5089170;28;20115;-63
2022/11/03 07:21:55;;;;;;;1.48;1.17;;;10.80;99.90;;;;;;5056332;28;20082;-62
2022/11/03 07:24:25;;;;;;;1.23;1.15;;;10.50;99.90;;;;;;5093043;28;20078;-64
2022/11/03 07:27:12;;;;;;;0.95;0.95;;;10.60;99.90;;;;;;5092893;28;20056;-63
2022/11/03 07:29:38;;;;;;;1.30;1.23;;;10.60;99.90;;;;;;5091182;28;20078;-62
2022/11/03 07:32:13;;;;;;;1.07;1.07;;;10.90;99.90;;;;;;5092573;28;20036;-63
2022/11/03 07:34:38;;;;;;;0.40;0.40;;;10.60;99.90;;;;;;5082045;28;20131;-63
2022/11/03 07:37:04;;;;;;;1.70;1.23;;;10.40;99.90;;;;;;5072359;28;20052;-63
2022/11/03 07:39:35;;;;;;;0.73;0.73;;;10.70;99.90;;;;;;5071500;28;20037;-64
2022/11/03 07:42:17;;;;;;;2.17;2.00;;;10.50;99.90;;;;;;5072154;28;20491;-63
2022/11/03 07:44:43;;;;;;;0.63;0.63;;;;;;;;;;5052145;28;20045;-63
2022/11/03 07:47:14;;;;;;;1.30;1.27;;;10.50;99.90;;;;;;5052032;28;20047;-63
2022/11/03 07:49:41;;;;;;;0.85;0.85;;;10.60;99.90;;;;;;5068076;28;20036;-63
2022/11/03 07:52:13;;;;;;;0.90;0.90;;;10.70;99.90;;;;;;5092198;28;20036;-64
2022/11/03 07:54:39;;;;;;;0.40;0.40;;;10.20;99.90;;;;;;5073909;28;20518;-63
2022/11/03 07:57:24;;;;;;;1.00;1.00;;;10.30;99.90;;;;;;5092265;28;20150;-64
2022/11/03 07:59:53;;;;;;;0.70;0.70;;;10.40;99.90;;;;;;5072293;28;20041;-63
2022/11/03 08:02:33;;;;;;;1.05;1.05;;;10.70;99.90;;;;;;5053634;28;20309;-63
2022/11/03 08:05:05;;;;;;;0.45;0.45;;;;;;;;;;5072812;28;20025;-63
2022/11/03 08:07:31;;;;;;;0.60;0.60;;;10.60;99.90;;;;;;5071606;28;20029;-63
2022/11/03 08:09:57;;;;;;;1.38;1.27;;;;;;;;;;5071517;28;20073;-63
2022/11/03 08:12:23;;;;;;;0.60;0.60;;;;;;;;;;5071595;28;20439;-63
2022/11/03 08:14:49;;;;;;;1.43;1.33;;;;;;;;;;5089191;28;20028;-63
2022/11/03 08:17:15;;;;;;;2.03;1.23;;;;;;;;;;5091441;28;20020;-63
2022/11/03 08:19:41;;;;;;;0.35;0.35;;;;;;;;;;5090079;28;20510;-62
2022/11/03 08:22:07;;;;;;;1.10;1.10;;;11.50;99.90;;;;;;5090222;28;20027;-63
2022/11/03 08:24:33;;;;;;;1.53;1.43;;;;;;;;;;5083604;28;20547;-63
2022/11/03 08:26:59;;;;;;;0.50;0.50;;;;;;;;;;5071422;28;20119;-65
2022/11/03 08:29:26;;;;;;;1.05;0.70;;;;;;;;;;5083631;28;20048;-64
2022/11/03 08:31:52;;;;;;;2.10;1.98;;;;;;;;;;5091849;28;20029;-64
2022/11/03 08:34:18;;;;;;;0.50;0.50;;;12.40;99.90;;;;;;5091728;28;20126;-64
2022/11/03 08:36:44;;;;;;;0.87;0.87;;;11.40;99.90;;;;;;5071854;28;20128;-62
2022/11/03 08:39:10;;;;;;;0.90;0.90;;;;;;;;;;5070680;28;20033;-63
2022/11/03 08:41:37;;;;;;;0.43;0.43;;;10.80;99.90;;;;;;5052706;28;20035;-68
2022/11/03 08:44:03;;;;;;;0.93;0.90;;;;;;;;;;5072308;28;20040;-69
2022/11/03 08:46:29;;;;;;;0.60;0.60;;;11.60;99.90;;;;;;5071227;28;20131;-68
2022/11/03 08:48:55;;;;;;;0.40;0.40;;;;;;;;;;5071194;28;20116;-68
2022/11/03 08:51:21;;;;;;;0.95;0.95;;;;;;;;;;5066817;28;20383;-69
2022/11/03 08:53:51;;;;;;;0.50;0.50;;;11.50;99.90;;;;;;5091490;28;20103;-69
2022/11/03 08:56:17;;;;;;;0.90;0.90;;;;;;;;;;5091559;28;20103;-68
2022/11/03 08:58:43;;;;;;;0.60;0.60;;;;;;;;;;5070257;28;20116;-69
2022/11/03 09:01:09;;;;;;;1.50;1.40;;;;;;;;;;5070745;28;20048;-68
2022/11/03 09:03:35;;;;;;;2.45;2.25;;;;;;;;;;5071241;28;20028;-69
2022/11/03 09:06:01;;;;;;;1.60;1.47;;;10.80;99.90;;;;;;5080631;28;20031;-69
2022/11/03 09:08:27;;;;;;;0.77;0.77;;;;;;;;;;5091446;28;20126;-69
2022/11/03 09:10:53;;;;;;;0.57;0.57;;;;;;;;;;5073066;28;20024;-68
2022/11/03 09:13:19;;;;;;;1.13;1.13;;;;;;;;;;5072989;28;20265;-68
2022/11/03 09:15:45;;;;;;;0.80;0.80;;;;;;;;;;5073140;28;20109;-68
2022/11/03 09:18:10;;;;;;;0.63;0.63;;;11.50;99.90;;;;;;5070993;28;20361;-69
2022/11/03 09:20:36;;;;;;;0.63;0.63;;;11.60;99.90;;;;;;5056258;28;20035;-68
2022/11/03 09:23:01;;;;;;;3.40;1.70;;;11.20;99.90;;;;;;5091142;28;20036;-69
2022/11/03 09:25:27;;;;;;;0.70;0.70;;;11.90;99.90;;;;;;5090949;28;20028;-69
2022/11/03 09:27:52;;;;;;;1.03;1.00;;;11.40;99.90;;;;;;5072377;28;20097;-69
2022/11/03 09:30:20;;;;;;;0.47;0.47;;;11.40;99.90;;;;;;5078634;28;20043;-69
2022/11/03 09:32:47;;;;;;;1.15;1.15;;;;;;;;;;5070055;28;20029;-69
2022/11/03 09:35:15;;;;;;;0.50;0.50;;;;;;;;;;5070873;28;20631;-66
2022/11/03 09:37:42;;;;;;;0.45;0.45;;;;;;;;;;5087980;28;20095;-66
2022/11/03 09:40:10;;;;;;;0.50;0.50;;;11.30;99.90;;;;;;5090347;28;20052;-66
2022/11/03 09:42:37;;;;;;;0.55;0.55;;;11.30;99.90;;;;;;5090637;28;20066;-66
2022/11/03 09:45:03;;;;;;;;;;;;;;;;;;5083068;28;20025;-69
2022/11/03 09:47:34;;;;;;;0.30;0.30;;;11.30;99.90;;;;;;5070345;28;20551;-68
2022/11/03 09:50:00;;;;;;;2.58;1.50;;;;;;;;;;5070297;28;20111;-70
2022/11/03 09:52:26;;;;;;;0.40;0.40;;;;;;;;;;5085396;28;20077;-69
2022/11/03 09:54:56;;;;;;;0.40;0.40;;;11.40;99.90;;;;;;5072646;28;20253;-68
2022/11/03 09:57:25;;;;;;;0.90;0.90;;;10.80;99.90;;;;;;5090574;28;20372;-69
2022/11/03 09:59:51;;;;;;;0.57;0.57;;;;;;;;;;5070753;28;20024;-70
2022/11/03 10:02:25;;;;;;;0.70;0.70;;;11.40;99.90;;;;;;5071531;28;20381;-67
2022/11/03 10:04:52;;;;;;;1.75;1.58;;;11.30;99.90;;;;;;5062509;28;20280;-69
2022/11/03 10:07:18;;;;;;;1.23;1.20;;;;;;;;;;5063554;28;20036;-69
2022/11/03 10:09:48;;;;;;;0.30;0.30;;;10.90;99.90;;;;;;5081826;28;20362;-68
2022/11/03 10:12:14;;;;;;;0.50;0.50;;;;;;;;;;5065323;28;20028;-67
2022/11/03 10:14:43;;;;;;;0.43;0.43;;;10.80;99.90;;;;;;5065050;28;20085;-68
2022/11/03 10:17:15;;;;;;;0.45;0.45;;;11.00;99.90;;;;;;5053741;28;20061;-67
2022/11/03 10:19:43;;;;;;;0.40;0.40;;;;;;;;;;5055154;28;20024;-69
2022/11/03 10:22:08;;;;;;;0.35;0.35;;;;;;;;;;5057997;28;20055;-67
2022/11/03 10:24:34;;;;;;;2.60;1.80;;;;;;;;;;5057094;28;20174;-68
2022/11/03 10:27:00;;;;;;;0.30;0.30;;;10.60;99.90;;;;;;5070487;28;20079;-69
2022/11/03 10:29:27;;;;;;;0.90;0.90;;;10.90;99.90;;;;;;5061791;28;20050;-68
2022/11/03 10:31:54;;;;;;;;;;;10.80;99.90;;;;;;5064768;28;20028;-70
2022/11/03 10:34:32;;;;;;;0.30;0.30;;;10.90;99.90;;;;;;5054024;28;19904;-66
2022/11/03 10:37:16;;;;;;;0.40;0.40;;;11.00;99.90;;;;;;5062070;28;20024;-69
2022/11/03 10:39:46;;;;;;;0.30;0.30;;;11.20;99.90;;;;;;5072904;28;20025;-70
2022/11/03 10:42:29;;;;;;;0.30;0.30;;;10.90;99.90;;;;;;5072774;28;20647;-67
2022/11/03 10:45:16;;;;;;;0.50;0.50;;;11.10;99.90;;;;;;5056006;28;20029;-67
2022/11/03 10:47:41;;;;;;;0.52;0.52;;;10.90;99.90;;;;;;5035461;28;20036;-71
2022/11/03 10:50:19;;;;;;;0.30;0.30;;;11.40;99.90;;;;;;5053705;28;20113;-69
2022/11/03 10:52:45;;;;;;;0.30;0.30;;;11.70;99.90;;;;;;5054785;28;20715;-68
2022/11/03 10:55:11;;;;;;;0.40;0.40;;;;;;;;;;5066411;28;20032;-69
2022/11/03 10:57:36;;;;;;;0.40;0.40;;;11.10;99.90;;;;;;5073229;28;20421;-69
2022/11/03 11:00:03;;;;;;;0.43;0.43;;;10.80;99.90;;;;;;5073118;28;20045;-62
2022/11/03 11:02:31;;;;;;;1.60;1.05;;;10.70;99.90;;;;;;5054754;28;20051;-64
2022/11/03 11:04:59;;;;;;;0.30;0.30;;;11.70;99.90;;;;;;5052360;28;20435;-64
2022/11/03 11:07:40;;;;;;;0.30;0.30;;;10.70;99.90;;;;;;5058460;28;20056;-63
2022/11/03 11:10:16;;;;;;;0.30;0.30;;;10.60;99.90;;;;;;5055983;28;20041;-64
2022/11/03 11:13:08;;;;;;;0.40;0.40;;;11.00;99.90;;;;;;5070332;28;20024;-64
2022/11/03 11:15:41;;;;;;;2.25;0.80;;;10.60;99.90;;;;;;5067606;28;20695;-63
2022/11/03 11:18:07;;;;;;;0.70;0.70;;;10.70;99.90;;;;;;5053139;28;20439;-64
2022/11/03 11:20:35;;;;;;;1.37;1.33;;;10.50;99.90;;;;;;5056333;28;20028;-63
2022/11/03 11:23:28;;;;;;;0.30;0.30;;;10.70;99.90;;;;;;5065716;28;20071;-65
2022/11/03 11:26:08;;;;;;;0.40;0.40;;;10.50;99.90;;;;;;5063266;28;20029;-62
2022/11/03 11:28:35;;;;;;;0.30;0.30;;;10.50;99.90;;;;;;5052951;28;20510;-63
2022/11/03 11:31:28;;;;;;;0.32;0.32;;;10.50;99.90;;;;;;5035874;28;20021;-63
2022/11/03 11:34:11;;;;;;;0.30;0.30;;;10.50;99.90;;;;;;5061474;28;20029;-63
2022/11/03 11:36:39;;;;;;;0.60;0.60;;;10.50;99.90;;;;;;5065341;28;20028;-63
2022/11/03 11:39:09;;;;;;;0.50;0.50;;;9.90;99.90;;;;;;5057657;28;20060;-64
2022/11/03 11:41:54;;;;;;;0.40;0.40;;;;;;;;;;5064917;28;20029;-62
2022/11/03 11:44:38;;;;;;;0.30;0.30;;;10.80;99.90;;;;;;5064949;28;20032;-62
2022/11/03 11:47:40;;;;;;;0.30;0.30;;;;;;;;;;5055348;28;20043;-62
2022/11/03 11:50:05;;;;;;;0.40;0.40;;;10.80;99.90;;;;;;4989737;28;20089;-64
2022/11/03 11:52:56;;;;;;;0.30;0.30;;;10.50;99.90;;;;;;5039658;28;20041;-65
2022/11/03 11:55:37;;;;;;;5.47;1.67;;;10.50;99.90;;;;;;5053361;28;20029;-66
2022/11/03 11:58:04;;;;;;;0.30;0.30;;;10.50;99.90;;;;;;5051925;28;20029;-62
2022/11/03 12:00:33;;;;;;;1.75;1.27;;;10.60;99.90;;;;;;5051350;28;20119;-62
2022/11/03 12:03:03;;;;;;;0.30;0.30;;;10.50;99.90;;;;;;5063714;28;20032;-64
2022/11/03 12:05:34;;;;;;;0.30;0.30;;;10.60;99.90;;;;;;5071476;28;20029;-63
2022/11/03 12:08:01;;;;;;;0.30;0.30;;;;;;;;;;5070796;28;20033;-63
2022/11/03 12:10:29;;;;;;;0.32;0.32;;;10.60;99.90;;;;;;5046953;28;20025;-62
2022/11/03 12:12:55;;;;;;;0.65;0.65;;;10.70;99.90;;;;;;5057436;28;20461;-67
2022/11/03 12:15:40;;;;;;;0.50;0.50;;;;;;;;;;5044693;28;20029;-69
2022/11/03 12:18:32;;;;;;;0.73;0.73;;;10.80;99.90;;;;;;5045039;28;20515;-68
2022/11/03 12:20:59;;;;;;;0.40;0.40;;;11.00;99.90;;;;;;5058929;28;20028;-68
2022/11/03 12:23:35;;;;;;;0.30;0.30;;;;;;;;;;5041965;28;20025;-68
2022/11/03 12:26:01;;;;;;;0.35;0.35;;;;;;;;;;5056683;28;20048;-68
2022/11/03 12:28:31;;;;;;;0.40;0.40;;;;;;;;;;5058175;28;20435;-69
2022/11/03 12:30:57;;;;;;;0.45;0.45;;;;;;;;;;5061439;28;20072;-66
2022/11/03 12:33:23;;;;;;;0.40;0.40;;;10.70;99.90;;;;;;5057563;28;20033;-64
2022/11/03 12:35:49;;;;;;;0.30;0.30;;;10.70;99.90;;;;;;5064869;28;20269;-62
2022/11/03 12:38:15;;;;;;;0.77;0.60;;;;;;;;;;5064891;28;20036;-64
2022/11/03 12:40:41;;;;;;;0.40;0.40;;;10.70;99.90;;;;;;5054346;28;20036;-63
2022/11/03 12:43:06;;;;;;;0.40;0.40;;;;;;;;;;5044801;28;20041;-64
2022/11/03 12:45:32;;;;;;;1.50;0.87;;;10.90;99.90;;;;;;5055366;28;20029;-65
2022/11/03 12:47:58;;;;;;;3.87;1.23;;;;;;;;;;5065598;28;20028;-65
2022/11/03 12:50:24;;;;;;;0.30;0.30;;;;;;;;;;5058159;28;20072;-67
2022/11/03 12:52:50;;;;;;;0.67;0.67;;;;;;;;;;5040460;28;20025;-65
2022/11/03 12:55:15;;;;;;;0.70;0.70;;;10.90;99.90;;;;;;5062026;28;20508;-67
2022/11/03 12:57:44;;;;;;;0.50;0.50;;;;;;;;;;5055685;28;20496;-65
2022/11/03 13:00:11;;;;;;;1.42;0.60;;;10.40;99.90;;;;;;5055412;28;20039;-66
2022/11/03 13:02:37;;;;;;;;;;;10.80;99.90;;;;;;5057358;28;20025;-66
2022/11/03 13:05:03;;;;;;;0.40;0.40;;;11.00;99.90;;;;;;5062861;28;20019;-65
2022/11/03 13:07:29;;;;;;;0.63;0.63;;;;;;;;;;5059259;28;20032;-66
2022/11/03 13:09:55;;;;;;;0.37;0.37;;;;;;;;;;5059824;28;20032;-68
2022/11/03 13:12:30;;;;;;;0.60;0.60;;;;;;;;;;5061030;28;20032;-65
2022/11/03 13:14:57;;;;;;;1.02;0.93;;;10.80;99.90;;;;;;5061225;28;20406;-65
2022/11/03 13:17:23;;;;;;;0.88;0.88;;;;;;;;;;5061330;28;20675;-66
2022/11/03 13:19:49;;;;;;;0.50;0.50;;;;;;;;;;5064205;28;20041;-65
2022/11/03 13:22:15;;;;;;;0.30;0.30;;;;;;;;;;5054659;28;20062;-65
2022/11/03 13:24:41;;;;;;;2.35;1.33;;;10.70;99.90;;;;;;5053527;28;20285;-67
2022/11/03 13:27:07;;;;;;;0.53;0.53;;;;;;;;;;5055459;28;20033;-66
2022/11/03 13:29:32;;;;;;;3.13;2.87;;;10.10;99.90;;;;;;5051224;28;20045;-62
2022/11/03 13:31:58;;;;;;;0.30;0.30;;;;;;;;;;5056952;28;20043;-65
2022/11/03 13:34:24;;;;;;;0.77;0.77;;;10.70;99.90;;;;;;5042584;28;20036;-64
2022/11/03 13:36:49;;;;;;;0.43;0.43;;;10.90;99.90;;;;;;5060690;28;20069;-62
2022/11/03 13:39:15;;;;;;;0.53;0.53;;;10.70;99.90;;;;;;5051025;28;20480;-64
2022/11/03 13:41:41;;;;;;;0.63;0.63;;;;;;;;;;5043523;28;20546;-64
2022/11/03 13:44:07;;;;;;;0.50;0.50;;;;;;;;;;5055944;28;20051;-62
2022/11/03 13:46:33;;;;;;;2.55;1.20;;;;;;;;;;5062134;28;20305;-63
2022/11/03 13:48:59;;;;;;;0.30;0.30;;;;;;;;;;5042637;28;20144;-64
2022/11/03 13:51:25;;;;;;;0.40;0.40;;;10.80;99.90;;;;;;5038279;28;20060;-62
2022/11/03 13:53:51;;;;;;;0.60;0.60;;;;;;;;;;5052661;28;20043;-61
2022/11/03 13:56:17;;;;;;;0.50;0.50;;;;;;;;;;5055265;28;20064;-62
2022/11/03 13:58:42;;;;;;;1.27;1.17;;;10.50;99.90;;;;;;5039383;28;20041;-60
2022/11/03 14:01:08;;;;;;;0.40;0.40;;;;;;;;;;5060355;28;20041;-64
2022/11/03 14:03:34;;;;;;;0.40;0.40;;;10.70;99.90;;;;;;5059723;28;20040;-64
2022/11/03 14:06:01;;;;;;;0.50;0.50;;;10.20;99.90;;;;;;5056676;28;20118;-61
2022/11/03 14:08:27;;;;;;;0.52;0.52;;;;;;;;;;5038683;28;20037;-62